Leyendecker II PSRC

2020-08-10 13:40:00

  • imperial
Date Time Air Temperature Relative Humidity Dewpoint Heat Index Wind Speed Wind Dir. Rain Solar Radiation Soil Temperature
2m 2m 3m 3m 10cm
US/Mountain F % F F MPH deg in MJ/m^2 F
max avg avg
2020-08-09 13:50:00 94.4 24.8 52.9 94.4 3.7 6.5 3.5 16.0 31.4 0.00 0.3007360 81.8
2020-08-09 13:55:00 94.7 29.1 57.6 94.7 2.2 5.1 2.5 129.3 120.3 0.00 0.3000379 81.9
2020-08-09 14:00:00 95.5 19.5 47.4 95.5 3.8 6.7 4.3 331.2 322.5 0.00 0.2988261 81.9
2020-08-09 14:05:00 95.5 20.2 48.3 95.5 2.4 4.6 3.7 342.2 344.6 0.00 0.2986204 82.0
2020-08-09 14:10:00 95.8 21.5 50.2 95.8 4.4 5.8 4.0 339.8 348.3 0.00 0.2977912 82.0
2020-08-09 14:15:00 95.1 21.6 49.9 95.1 6.7 7.8 5.2 1.2 7.4 0.00 0.2954606 82.1
2020-08-09 14:20:00 95.6 19.9 48.1 95.6 6.2 7.6 5.5 346.8 333.3 0.00 0.2942738 82.2
2020-08-09 14:25:00 95.6 19.2 47.1 95.6 4.4 7.2 5.2 27.7 350.2 0.00 0.2930068 82.2
2020-08-09 14:30:00 95.8 20.6 49.1 95.8 3.0 6.3 4.6 330.8 333.6 0.00 0.2927158 82.3
2020-08-09 14:35:00 96.5 18.0 46.2 96.5 1.0 3.7 2.6 315.9 8.9 0.00 0.2916195 82.3
2020-08-09 14:40:00 97.0 17.7 46.0 97.0 3.5 6.0 4.4 0.8 343.7 0.00 0.2904817 82.3
2020-08-09 14:45:00 96.7 16.3 43.6 96.7 4.4 6.0 4.4 17.8 6.0 0.00 0.2919232 82.4
2020-08-09 14:50:00 96.3 16.9 44.2 96.3 3.8 6.3 4.4 348.6 358.4 0.00 0.2202743 82.4
2020-08-09 14:55:00 96.1 16.4 43.3 96.1 4.2 5.6 4.5 7.8 359.2 0.00 0.1483139 82.5
2020-08-09 15:00:00 95.4 23.2 52.0 95.4 2.6 5.6 4.2 34.4 358.8 0.00 0.0938537 82.5
2020-08-09 15:05:00 95.3 18.4 45.6 95.3 3.7 4.9 3.1 339.8 351.3 0.00 0.1160693 82.5
2020-08-09 15:10:00 95.6 25.3 54.5 95.6 3.5 5.3 4.0 280.7 1.6 0.00 0.1745094 82.6
2020-08-09 15:15:00 95.1 23.7 52.3 95.1 3.7 3.7 2.4 7.0 286.7 0.00 0.1313674 82.6
2020-08-09 15:20:00 95.3 18.9 46.4 95.3 3.8 4.7 3.7 0.1 346.6 0.00 0.1038641 82.7
2020-08-09 15:25:00 95.0 28.0 56.8 95.0 2.6 3.7 3.0 344.7 342.9 0.00 0.0646114 82.7
2020-08-09 15:30:00 93.9 29.0 56.8 93.9 1.5 3.1 2.2 8.1 332.7 0.00 0.0654765 82.8
2020-08-09 15:35:00 93.3 29.5 56.8 93.3 1.5 2.4 1.6 273.4 296.5 0.00 0.0624045 82.8
2020-08-09 15:40:00 91.9 31.2 57.1 91.9 1.7 1.9 1.6 263.4 266.5 0.00 0.0625153 82.8
2020-08-09 15:45:00 90.2 31.3 55.8 90.2 2.2 2.2 1.9 232.8 245.1 0.00 0.0588009 82.9
2020-08-09 15:50:00 89.6 34.2 57.7 89.6 3.0 3.0 2.1 195.6 214.6 0.00 0.0950821 82.9
2020-08-09 15:55:00 89.5 36.9 59.7 89.5 3.0 3.3 2.9 206.7 200.0 0.00 0.1566165 82.9
2020-08-09 16:00:00 91.6 26.1 52.0 91.6 3.1 4.2 3.2 220.7 206.8 0.00 0.2369917 82.9
2020-08-09 16:05:00 92.8 26.8 53.7 92.8 8.5 9.9 5.8 212.3 216.0 0.00 0.2403476 82.9
2020-08-09 16:10:00 92.8 34.1 60.5 92.8 3.5 8.3 4.6 204.7 212.6 0.00 0.1945421 82.9
2020-08-09 16:15:00 93.2 30.1 57.3 93.2 4.0 6.0 3.7 167.1 184.5 0.00 0.2267412 82.9
2020-08-09 16:20:00 94.0 34.7 61.9 94.0 1.9 4.9 3.4 245.5 185.5 0.00 0.2631288 82.9
2020-08-09 16:25:00 95.2 25.9 54.8 95.2 2.2 5.6 3.4 166.8 184.5 0.00 0.2357679 83.0
2020-08-09 16:30:00 95.8 24.9 54.2 95.8 2.6 4.2 2.6 104.3 182.5 0.00 0.2041115 83.0
2020-08-09 16:35:00 95.9 19.7 47.9 95.9 4.4 5.5 4.2 110.2 124.4 0.00 0.2383975 82.9
2020-08-09 16:40:00 95.9 21.0 49.8 95.9 3.5 4.7 3.6 150.1 122.9 0.00 0.2228783 82.9
2020-08-09 16:45:00 96.7 21.2 50.6 96.7 2.2 3.7 2.8 118.0 149.1 0.00 0.2093333 83.0
2020-08-09 16:50:00 96.9 18.9 47.6 96.9 3.1 3.3 2.8 141.3 126.2 0.00 0.1963970 83.0
2020-08-09 16:55:00 97.1 21.6 51.5 97.1 2.2 3.8 3.2 124.5 128.2 0.00 0.1874463 83.0
2020-08-09 17:00:00 97.4 19.5 48.9 97.4 1.3 2.8 2.1 167.8 156.4 0.00 0.1794006 83.0
2020-08-09 17:05:00 97.5 18.7 48.0 97.5 3.0 3.7 2.6 120.4 133.0 0.00 0.1728842 83.0
2020-08-09 17:10:00 97.2 23.4 53.7 97.2 2.2 3.1 2.4 222.0 196.7 0.00 0.1650990 83.0
2020-08-09 17:15:00 97.2 28.7 59.4 97.2 2.1 2.6 1.9 212.4 226.9 0.00 0.1588584 83.0
2020-08-09 17:20:00 96.7 30.8 60.9 96.7 2.6 3.7 2.7 235.1 241.9 0.00 0.1530043 83.0
2020-08-09 17:25:00 95.5 28.6 57.8 95.5 2.2 3.3 2.7 188.6 221.5 0.00 0.1493142 83.0
2020-08-09 17:30:00 96.3 19.2 47.6 96.3 1.3 2.8 2.0 234.1 220.8 0.00 0.1462477 83.0
2020-08-09 17:35:00 97.2 28.9 59.6 97.2 1.5 2.1 1.4 103.4 214.4 0.00 0.1382808 83.0
2020-08-09 17:40:00 96.8 24.9 55.1 96.8 1.9 3.7 2.6 222.8 166.7 0.00 0.1309335 83.0
2020-08-09 17:45:00 96.9 24.8 55.0 96.9 2.1 2.4 1.5 44.4 272.4 0.00 0.1257629 83.0
2020-08-09 17:50:00 96.4 22.4 51.9 96.4 1.9 2.8 2.2 28.7 72.1 0.00 0.1201683 83.0
2020-08-09 17:55:00 96.9 18.9 47.6 96.9 3.0 3.0 1.8 346.3 39.2 0.00 0.1154151 83.0
2020-08-09 18:00:00 97.7 27.5 58.6 97.7 1.5 3.7 2.4 282.7 328.8 0.00 0.0971832 83.1
2020-08-09 18:05:00 96.3 26.8 56.7 96.3 2.4 2.4 1.7 257.8 258.9 0.00 0.0704407 83.1
2020-08-09 18:10:00 95.3 25.4 54.4 95.3 2.1 2.8 2.1 312.6 288.4 0.00 0.0692109 83.1
2020-08-09 18:15:00 95.5 25.3 54.4 95.5 2.4 2.6 1.7 328.8 324.9 0.00 0.0843071 83.1
2020-08-09 18:20:00 95.6 30.4 59.6 95.6 2.2 2.6 2.4 313.2 323.6 0.00 0.0811354 83.1
2020-08-09 18:25:00 94.5 31.6 59.8 94.5 2.1 2.8 2.5 302.4 314.3 0.00 0.0758210 83.1
2020-08-09 18:30:00 93.8 33.0 60.4 93.8 2.2 2.2 2.1 322.7 315.7 0.00 0.0420664 83.1
2020-08-09 18:35:00 92.3 34.5 60.3 92.3 1.5 2.6 2.0 291.5 299.4 0.00 0.0324511 83.1
2020-08-09 18:40:00 91.1 34.4 59.2 91.1 1.3 1.7 1.5 256.8 265.0 0.00 0.0349574 83.1
2020-08-09 18:45:00 89.4 39.2 61.4 89.4 0.0 1.7 0.9 255.5 252.7 0.00 0.0118213 83.1
2020-08-09 18:50:00 88.1 39.2 60.2 88.1 0.0 0.0 0.0 291.9 0.0 0.00 0.0104177 83.1
2020-08-09 18:55:00 87.2 38.0 58.5 87.2 0.0 0.0 0.0 284.2 0.0 0.00 0.0093802 83.1
2020-08-09 19:00:00 86.0 44.0 61.5 86.3 0.0 0.0 0.0 248.0 0.0 0.00 0.0085553 83.1
2020-08-09 19:05:00 84.6 47.3 62.4 85.3 0.8 1.5 1.1 214.8 262.7 0.00 0.0075568 83.1
2020-08-09 19:10:00 83.7 47.3 61.5 84.2 0.0 1.5 0.7 212.2 208.9 0.00 0.0066564 83.1
2020-08-09 19:15:00 83.2 49.9 62.6 84.1 0.0 0.0 0.0 256.6 0.0 0.00 0.0055581 83.1
2020-08-09 19:20:00 82.7 50.1 62.3 83.6 1.2 1.3 0.8 239.2 246.2 0.00 0.0052466 83.1
2020-08-09 19:25:00 82.4 50.0 61.9 83.2 0.0 1.0 0.4 270.7 209.3 0.00 0.0125729 83.0
2020-08-09 19:30:00 82.2 49.4 61.4 82.9 0.0 1.3 0.4 243.5 266.7 0.00 0.0152300 83.0
2020-08-09 19:35:00 82.1 50.1 61.7 82.9 0.0 1.0 0.3 209.7 193.5 0.00 0.0062924 83.0
2020-08-09 19:40:00 81.6 51.6 62.1 82.5 0.0 0.0 0.0 281.9 0.0 0.00 0.0032982 83.0
2020-08-09 19:45:00 81.3 53.5 62.8 82.5 1.2 1.2 0.1 290.7 291.0 0.00 0.0021650 83.0
2020-08-09 19:50:00 81.0 57.1 64.4 82.7 0.0 1.9 1.2 271.9 277.4 0.00 0.0012158 83.0
2020-08-09 19:55:00 80.6 62.1 66.4 82.8 5.8 5.8 2.2 309.4 296.4 0.00 0.0004605 82.9
2020-08-09 20:00:00 83.5 41.9 58.0 83.1 5.8 11.2 8.3 334.7 316.5 0.00 0.0006734 82.9
2020-08-09 20:05:00 84.6 38.1 56.3 84.6 5.8 9.6 5.0 293.0 313.2 0.00 0.0001185 82.9
2020-08-09 20:10:00 85.9 30.8 51.6 85.9 6.9 9.2 7.1 313.9 309.1 0.00 0.0000000 82.9
2020-08-09 20:15:00 86.3 29.6 50.9 86.3 8.1 10.5 7.9 322.4 322.4 0.00 0.0000000 82.9
2020-08-09 20:20:00 86.8 29.0 50.7 86.8 6.0 10.1 7.5 348.4 341.2 0.00 0.0000000 82.8
2020-08-09 20:25:00 86.6 29.3 50.8 86.6 6.2 10.8 7.0 340.5 342.9 0.00 0.0000000 82.8
2020-08-09 20:30:00 86.5 29.0 50.5 86.5 5.1 8.0 6.3 329.7 340.8 0.00 0.0000000 82.8
2020-08-09 20:35:00 86.2 28.3 49.6 86.2 4.9 5.8 4.8 334.8 338.9 0.00 0.0000000 82.8
2020-08-09 20:40:00 86.0 31.8 52.6 86.0 2.6 4.6 3.8 312.4 332.6 0.00 0.0000000 82.8
2020-08-09 20:45:00 84.3 35.7 54.2 84.3 2.1 2.6 1.8 257.2 280.3 0.00 0.0000000 82.8
2020-08-09 20:50:00 82.8 37.6 54.3 82.8 2.1 2.1 1.6 259.0 265.2 0.00 0.0000000 82.7
2020-08-09 20:55:00 81.1 40.8 55.1 80.8 2.1 2.4 2.2 254.1 246.3 0.00 0.0000000 82.7
2020-08-09 21:00:00 80.2 41.6 54.7 80.2 3.0 3.1 2.3 271.9 261.3 0.00 0.0000000 82.7
2020-08-09 21:05:00 80.5 38.2 52.7 80.5 0.0 5.6 2.2 36.5 289.1 0.00 0.0000000 82.6
2020-08-09 21:10:00 80.6 41.2 54.9 80.5 1.3 2.6 1.6 299.4 9.1 0.00 0.0000000 82.6
2020-08-09 21:15:00 80.2 41.3 54.6 80.2 0.8 1.5 1.1 95.3 347.0 0.00 0.0000000 82.6
2020-08-09 21:20:00 79.9 41.5 54.4 79.9 1.9 4.4 2.3 330.9 39.7 0.00 0.0000000 82.5
2020-08-09 21:25:00 79.6 42.3 54.7 79.6 1.7 2.4 1.4 222.2 275.4 0.00 0.0000000 82.5
2020-08-09 21:30:00 78.8 43.7 54.8 78.8 1.2 2.6 1.9 214.0 226.0 0.00 0.0000000 82.5
2020-08-09 21:35:00 78.4 46.0 55.9 78.4 1.7 1.9 1.3 206.5 182.1 0.00 0.0000000 82.5
2020-08-09 21:40:00 77.6 45.0 54.6 77.6 2.6 2.8 2.2 194.8 194.8 0.00 0.0000000 82.4
2020-08-09 21:45:00 77.0 49.0 56.4 77.0 2.6 3.0 2.4 194.8 205.2 0.00 0.0000000 82.4
2020-08-09 21:50:00 76.4 52.3 57.7 76.4 2.4 2.8 2.5 189.0 184.6 0.00 0.0000000 82.4
2020-08-09 21:55:00 76.1 51.9 57.2 76.1 3.1 3.5 2.8 195.2 200.5 0.00 0.0000000 82.3
2020-08-09 22:00:00 75.7 54.2 58.0 75.7 3.1 3.1 2.9 193.0 189.0 0.00 0.0000000 82.3
2020-08-09 22:05:00 75.2 54.0 57.4 75.2 1.5 3.5 2.7 286.5 204.3 0.00 0.0000000 82.3
2020-08-09 22:10:00 74.7 58.1 58.9 74.7 1.5 1.7 1.3 299.8 264.6 0.00 0.0000000 82.3
2020-08-09 22:15:00 73.9 60.1 59.2 73.9 1.7 2.4 1.7 272.3 268.0 0.00 0.0000000 82.2
2020-08-09 22:20:00 73.5 60.0 58.8 73.5 0.0 1.7 0.7 255.7 248.4 0.00 0.0000000 82.2
2020-08-09 22:25:00 73.3 58.8 58.0 73.3 1.0 2.1 1.4 210.1 232.5 0.00 0.0000000 82.2
2020-08-09 22:30:00 73.0 59.6 58.2 73.0 0.0 1.3 0.6 302.7 216.9 0.00 0.0000000 82.1
2020-08-09 22:35:00 72.8 54.0 55.2 72.8 2.6 3.0 1.7 194.2 226.6 0.00 0.0000000 82.1
2020-08-09 22:40:00 73.1 63.7 60.1 73.1 4.2 4.2 2.5 156.3 177.2 0.00 0.0000000 82.1
2020-08-09 22:45:00 73.1 63.1 59.8 73.1 4.2 5.3 4.5 169.6 151.9 0.00 0.0000000 82.0
2020-08-09 22:50:00 74.7 50.9 55.3 74.7 3.3 5.5 4.1 133.2 175.4 0.00 0.0000510 82.0
2020-08-09 22:55:00 77.0 47.4 55.5 77.0 4.2 4.4 3.5 130.6 152.3 0.00 0.0000560 82.0
2020-08-09 23:00:00 77.4 45.4 54.6 77.4 3.7 5.6 4.6 185.7 178.9 0.00 0.0000000 82.0
2020-08-09 23:05:00 78.4 42.2 53.6 78.4 3.3 5.8 4.3 173.5 167.5 0.00 0.0000000 81.9
2020-08-09 23:10:00 77.2 52.0 58.2 77.2 0.8 3.3 2.0 245.9 208.9 0.00 0.0000000 81.9
2020-08-09 23:15:00 76.0 53.6 57.9 76.0 1.7 2.8 1.7 260.0 241.0 0.00 0.0000000 81.9
2020-08-09 23:20:00 74.9 54.6 57.4 74.9 1.5 1.7 1.2 253.0 270.3 0.00 0.0000000 81.8
2020-08-09 23:25:00 74.2 56.4 57.7 74.2 1.2 2.2 1.7 247.9 262.2 0.00 0.0000000 81.8
2020-08-09 23:30:00 73.6 58.4 58.1 73.6 0.0 1.0 0.2 211.1 231.3 0.00 0.0000000 81.8
2020-08-09 23:35:00 73.2 59.1 58.1 73.2 2.4 2.4 1.3 272.6 275.0 0.00 0.0000000 81.7
2020-08-09 23:40:00 72.7 61.2 58.6 72.7 4.2 4.6 2.9 319.8 287.8 0.00 0.0000000 81.7
2020-08-09 23:45:00 73.6 53.6 55.7 73.6 3.8 6.7 5.4 295.7 295.9 0.00 0.0000000 81.7
2020-08-09 23:50:00 74.4 49.2 54.1 74.4 4.4 5.6 3.9 249.5 225.3 0.00 0.0000000 81.6
2020-08-09 23:55:00 74.7 52.9 56.4 74.7 1.3 4.6 2.5 329.7 316.8 0.00 0.0000000 81.6
2020-08-10 00:00:00 73.8 55.3 56.7 73.8 2.6 4.0 3.0 290.2 326.8 0.00 0.0000000 81.6
2020-08-10 00:05:00 73.4 55.5 56.5 73.4 3.0 3.3 2.6 249.4 256.3 0.00 0.0000000 81.6
2020-08-10 00:10:00 73.3 54.8 56.0 73.3 0.0 3.0 1.3 268.6 204.3 0.00 0.0000000 81.5
2020-08-10 00:15:00 73.0 56.3 56.5 73.0 0.0 0.0 0.0 296.4 0.0 0.00 0.0000000 81.5
2020-08-10 00:20:00 72.6 60.1 58.0 72.6 1.7 3.1 1.4 295.9 230.3 0.00 0.0000000 81.5
2020-08-10 00:25:00 72.2 62.4 58.6 72.2 0.0 1.9 1.0 268.8 247.8 0.00 0.0000000 81.4
2020-08-10 00:30:00 71.6 62.6 58.2 71.6 4.0 4.0 1.8 305.7 307.8 0.00 0.0000000 81.4
2020-08-10 00:35:00 71.2 64.0 58.4 71.2 4.6 4.7 4.1 309.2 307.8 0.00 0.0000000 81.4
2020-08-10 00:40:00 71.5 63.6 58.5 71.5 3.0 5.5 4.0 324.4 309.3 0.00 0.0000000 81.4
2020-08-10 00:45:00 71.5 64.8 59.0 71.5 0.0 4.0 1.8 344.8 287.4 0.00 0.0000000 81.3
2020-08-10 00:50:00 71.1 64.2 58.4 71.1 4.0 4.2 3.1 306.0 323.2 0.00 0.0000000 81.3
2020-08-10 00:55:00 71.2 64.8 58.7 71.2 2.4 3.8 2.3 173.7 231.2 0.00 0.0000000 81.3
2020-08-10 01:00:00 71.6 63.2 58.4 71.6 2.2 3.5 2.5 294.7 274.5 0.00 0.0000000 81.2
2020-08-10 01:05:00 71.8 61.7 57.9 71.8 2.2 2.4 1.6 242.5 172.8 0.00 0.0000000 81.2
2020-08-10 01:10:00 72.0 62.3 58.4 72.0 0.0 2.2 1.3 137.1 213.8 0.00 0.0000000 81.2
2020-08-10 01:15:00 71.9 62.1 58.2 71.9 2.2 2.2 0.8 182.6 191.8 0.00 0.0000000 81.2
2020-08-10 01:20:00 72.2 62.7 58.7 72.2 4.4 4.6 3.2 199.8 188.1 0.00 0.0000000 81.2
2020-08-10 01:25:00 72.2 63.1 58.9 72.2 1.2 4.4 2.3 189.5 185.2 0.00 0.0000000 81.1
2020-08-10 01:30:00 71.9 62.5 58.4 71.9 1.7 2.6 2.1 139.3 131.8 0.00 0.0000000 81.1
2020-08-10 01:35:00 71.7 67.7 60.5 71.7 4.4 4.4 3.0 158.5 163.3 0.00 0.0000000 81.1
2020-08-10 01:40:00 71.4 65.3 59.2 71.4 1.2 4.6 3.3 48.7 152.2 0.00 0.0000000 81.1
2020-08-10 01:45:00 71.4 63.8 58.5 71.4 4.0 4.0 2.2 160.7 150.1 0.00 0.0000000 81.0
2020-08-10 01:50:00 71.9 61.9 58.2 71.9 4.4 4.9 4.6 177.7 170.0 0.00 0.0000000 81.0
2020-08-10 01:55:00 72.2 58.6 56.9 72.2 3.7 4.2 3.5 139.0 164.0 0.00 0.0000000 81.0
2020-08-10 02:00:00 72.7 57.0 56.5 72.7 2.8 4.0 3.3 142.0 151.0 0.00 0.0000000 81.0
2020-08-10 02:05:00 72.8 54.5 55.4 72.8 3.0 3.8 3.3 169.9 157.4 0.00 0.0000000 80.9
2020-08-10 02:10:00 72.5 57.3 56.6 72.5 2.8 4.6 3.3 155.8 163.2 0.00 0.0000000 80.9
2020-08-10 02:15:00 72.7 53.0 54.6 72.7 3.5 3.7 2.5 133.0 134.2 0.00 0.0000000 80.9
2020-08-10 02:20:00 72.8 52.1 54.2 72.8 1.7 3.3 2.5 106.9 130.9 0.00 0.0000000 80.9
2020-08-10 02:25:00 72.5 54.1 55.0 72.5 1.5 1.9 1.2 34.4 144.6 0.00 0.0000000 80.9
2020-08-10 02:30:00 72.0 56.5 55.7 72.0 0.0 1.7 0.2 242.0 23.1 0.00 0.0000000 80.8
2020-08-10 02:35:00 71.4 58.3 56.0 71.4 1.3 1.3 0.1 21.5 38.4 0.00 0.0000000 80.8
2020-08-10 02:40:00 71.0 59.1 55.9 71.0 0.0 1.3 0.4 6.4 9.7 0.00 0.0000000 80.8
2020-08-10 02:45:00 71.0 58.6 55.8 71.0 1.9 1.9 0.3 229.5 237.4 0.00 0.0000000 80.8
2020-08-10 02:50:00 71.3 57.1 55.3 71.3 1.5 2.6 1.6 198.0 201.7 0.00 0.0000000 80.7
2020-08-10 02:55:00 70.8 62.7 57.4 70.8 2.1 2.2 1.5 293.1 268.0 0.00 0.0000000 80.7
2020-08-10 03:00:00 69.2 65.3 57.1 69.2 4.7 4.9 3.1 314.9 313.2 0.00 0.0000000 80.7
2020-08-10 03:05:00 68.9 64.6 56.4 68.9 5.6 8.7 6.2 313.5 306.0 0.00 0.0000000 80.7
2020-08-10 03:10:00 70.1 57.4 54.4 70.1 4.4 6.5 4.2 321.6 296.4 0.00 0.0000000 80.7
2020-08-10 03:15:00 70.6 60.0 56.1 70.6 1.3 4.6 2.4 253.5 277.4 0.00 0.0000000 80.6
2020-08-10 03:20:00 70.2 62.8 56.9 70.2 0.0 1.5 0.7 101.1 243.5 0.00 0.0000000 80.6
2020-08-10 03:25:00 69.8 60.8 55.6 69.8 2.1 3.1 1.3 265.1 218.1 0.00 0.0000000 80.6
2020-08-10 03:30:00 70.1 63.1 56.9 70.1 1.3 2.6 1.4 160.4 226.7 0.00 0.0000000 80.5
2020-08-10 03:35:00 69.5 63.7 56.6 69.5 2.8 3.7 2.0 223.6 227.7 0.00 0.0000000 80.5
2020-08-10 03:40:00 69.3 64.2 56.7 69.3 3.8 4.4 2.2 193.0 226.7 0.00 0.0000000 80.5
2020-08-10 03:45:00 68.9 67.3 57.6 68.9 1.5 3.7 2.4 58.2 150.8 0.00 0.0000000 80.5
2020-08-10 03:50:00 68.9 63.1 55.9 68.9 1.7 3.0 2.2 25.5 24.8 0.00 0.0000000 80.4
2020-08-10 03:55:00 68.8 67.1 57.4 68.8 0.0 1.7 0.5 48.5 6.1 0.00 0.0000000 80.4
2020-08-10 04:00:00 68.1 67.2 56.8 68.1 0.0 1.9 0.4 246.6 75.0 0.00 0.0000000 80.4
2020-08-10 04:05:00 68.0 67.6 56.9 68.0 0.0 1.2 0.4 154.9 252.1 0.00 0.0000000 80.4
2020-08-10 04:10:00 67.8 69.0 57.3 67.8 0.0 1.7 0.6 186.6 110.8 0.00 0.0000000 80.4
2020-08-10 04:15:00 67.7 69.2 57.2 67.7 1.7 1.7 0.1 151.4 148.8 0.00 0.0000000 80.3
2020-08-10 04:20:00 67.7 71.4 58.1 67.7 2.1 2.8 2.3 166.2 170.3 0.00 0.0000000 80.3
2020-08-10 04:25:00 67.4 70.8 57.6 67.4 2.2 2.6 2.2 196.8 180.1 0.00 0.0000000 80.3
2020-08-10 04:30:00 67.5 72.2 58.2 67.5 2.1 2.6 2.0 175.3 192.5 0.00 0.0000000 80.3
2020-08-10 04:35:00 67.4 73.3 58.5 67.4 2.2 2.8 2.3 208.6 191.8 0.00 0.0000000 80.2
2020-08-10 04:40:00 67.4 73.5 58.6 67.4 1.2 2.2 1.5 263.4 220.7 0.00 0.0000000 80.2
2020-08-10 04:45:00 66.8 75.9 59.0 66.8 0.0 1.9 1.1 277.1 256.0 0.00 0.0000000 80.2
2020-08-10 04:50:00 66.3 76.7 58.8 66.3 0.0 0.0 0.0 335.4 0.0 0.00 0.0000000 80.2
2020-08-10 04:55:00 65.7 76.4 58.1 65.7 0.0 0.0 0.0 252.2 0.0 0.00 0.0000000 80.2
2020-08-10 05:00:00 65.5 78.1 58.5 65.5 0.0 0.0 0.0 202.2 0.0 0.00 0.0000000 80.1
2020-08-10 05:05:00 65.3 77.4 58.1 65.3 0.0 0.0 0.0 280.7 0.0 0.00 0.0000000 80.1
2020-08-10 05:10:00 65.2 77.3 57.9 65.2 0.0 0.0 0.0 172.9 0.0 0.00 0.0000000 80.1
2020-08-10 05:15:00 65.1 78.9 58.4 65.1 0.0 0.0 0.0 117.9 0.0 0.00 0.0000000 80.1
2020-08-10 05:20:00 64.9 83.8 59.9 64.9 2.1 2.1 0.3 186.5 186.5 0.00 0.0000000 80.1
2020-08-10 05:25:00 64.9 85.7 60.5 64.9 0.0 2.4 1.8 200.9 176.7 0.00 0.0000000 80.0
2020-08-10 05:30:00 64.9 85.0 60.2 64.9 2.2 2.2 1.3 278.6 267.8 0.00 0.0000000 80.0
2020-08-10 05:35:00 64.4 83.5 59.3 64.4 2.4 2.4 2.2 285.5 291.2 0.00 0.0000000 80.0
2020-08-10 05:40:00 64.3 85.2 59.8 64.3 2.2 3.0 2.5 288.0 284.8 0.00 0.0000000 79.9
2020-08-10 05:45:00 64.1 85.2 59.6 64.1 4.0 4.2 2.6 319.1 303.1 0.00 0.0000000 79.9
2020-08-10 05:50:00 64.1 84.8 59.5 64.1 2.8 4.4 3.1 315.0 296.2 0.00 0.0000000 79.9
2020-08-10 05:55:00 64.1 84.4 59.3 64.1 1.7 3.0 1.7 271.5 298.5 0.00 0.0000000 79.9
2020-08-10 06:00:00 64.1 84.4 59.3 64.1 0.0 2.8 1.4 21.6 304.7 0.00 0.0000000 79.8
2020-08-10 06:05:00 64.2 83.3 59.0 64.2 1.3 1.5 1.0 47.3 32.4 0.00 0.0000000 79.8
2020-08-10 06:10:00 64.1 84.1 59.2 64.1 0.0 1.9 0.5 176.0 115.2 0.00 0.0000000 79.8
2020-08-10 06:15:00 64.2 83.3 59.0 64.2 2.2 2.6 0.9 256.1 238.8 0.00 0.0000000 79.8
2020-08-10 06:20:00 64.0 83.6 58.9 64.0 0.0 2.2 0.5 306.5 265.7 0.00 0.0000000 79.7
2020-08-10 06:25:00 63.8 82.9 58.5 63.8 1.5 2.2 1.0 312.2 337.2 0.00 0.0001230 79.7
2020-08-10 06:30:00 63.6 82.0 58.0 63.6 0.0 1.5 0.6 281.1 241.4 0.00 0.0006470 79.7
2020-08-10 06:35:00 63.5 83.5 58.4 63.5 2.6 2.6 1.1 311.7 305.8 0.00 0.0014770 79.7
2020-08-10 06:40:00 63.5 79.9 57.2 63.5 1.5 2.8 1.9 346.4 300.6 0.00 0.0024689 79.7
2020-08-10 06:45:00 63.8 79.5 57.3 63.8 1.3 3.1 2.4 16.1 351.5 0.00 0.0036009 79.7
2020-08-10 06:50:00 64.0 79.4 57.5 64.0 2.1 3.5 2.0 20.7 34.0 0.00 0.0046460 79.6
2020-08-10 06:55:00 64.2 78.3 57.3 64.2 1.2 1.7 0.4 208.6 61.0 0.00 0.0056576 79.6
2020-08-10 07:00:00 64.4 78.5 57.5 64.4 0.0 1.5 0.2 194.9 202.4 0.00 0.0066628 79.6
2020-08-10 07:05:00 64.5 78.8 57.8 64.5 0.0 0.0 0.0 256.1 0.0 0.00 0.0075548 79.6
2020-08-10 07:10:00 64.7 78.3 57.8 64.7 0.0 0.0 0.0 142.6 0.0 0.00 0.0085193 79.6
2020-08-10 07:15:00 65.0 77.0 57.6 65.0 0.0 0.0 0.0 250.1 0.0 0.00 0.0103615 79.5
2020-08-10 07:20:00 65.6 75.2 57.5 65.6 0.8 2.4 1.4 4.8 6.1 0.00 0.0298772 79.5
2020-08-10 07:25:00 66.7 69.0 56.2 66.7 0.8 1.9 1.1 18.5 17.8 0.00 0.0423701 79.5
2020-08-10 07:30:00 68.3 63.8 55.6 68.3 0.8 1.0 0.1 331.6 3.8 0.00 0.0470581 79.5
2020-08-10 07:35:00 69.6 64.0 56.9 69.6 0.0 1.5 0.5 206.3 339.0 0.00 0.0516018 79.4
2020-08-10 07:40:00 70.7 62.7 57.4 70.7 0.0 0.0 0.0 188.8 0.0 0.00 0.0562273 79.4
2020-08-10 07:45:00 71.3 60.4 56.9 71.3 1.2 1.2 0.1 261.0 269.7 0.00 0.0607466 79.4
2020-08-10 07:50:00 72.5 59.3 57.5 72.5 0.0 1.3 0.4 343.7 294.4 0.00 0.0653908 79.4
2020-08-10 07:55:00 73.1 58.4 57.6 73.1 1.3 2.2 1.0 218.7 236.9 0.00 0.0701607 79.4
2020-08-10 08:00:00 73.5 57.2 57.4 73.5 1.3 1.5 0.4 171.0 208.6 0.00 0.0749237 79.4
2020-08-10 08:05:00 73.8 56.0 57.1 73.8 1.9 2.4 1.4 208.7 203.1 0.00 0.0729633 79.3
2020-08-10 08:10:00 74.2 54.9 57.0 74.2 2.1 2.1 1.5 203.5 216.0 0.00 0.0856201 79.3
2020-08-10 08:15:00 74.6 56.0 57.9 74.6 1.5 2.2 1.6 190.2 209.6 0.00 0.0908457 79.3
2020-08-10 08:20:00 75.3 54.1 57.6 75.3 1.3 1.5 1.2 191.5 215.6 0.00 0.0960256 79.3
2020-08-10 08:25:00 76.7 50.5 56.9 76.7 0.0 1.7 0.6 105.4 205.7 0.00 0.1016222 79.3
2020-08-10 08:30:00 77.5 48.0 56.3 77.5 1.0 2.2 1.2 166.8 174.0 0.00 0.1066638 79.3
2020-08-10 08:35:00 78.2 48.2 57.0 78.2 1.7 3.1 1.4 110.5 152.5 0.00 0.1119429 79.3
2020-08-10 08:40:00 78.0 47.5 56.5 78.0 2.4 3.0 2.5 139.2 141.7 0.00 0.1177777 79.3
2020-08-10 08:45:00 78.6 54.1 60.7 78.6 1.0 2.6 1.7 85.3 122.3 0.00 0.1232003 79.3
2020-08-10 08:50:00 79.4 48.1 58.1 79.4 3.8 3.8 2.2 146.8 118.8 0.00 0.1286126 79.3
2020-08-10 08:55:00 79.1 46.8 57.1 79.1 3.7 4.0 3.1 144.5 150.7 0.00 0.1335793 79.3
2020-08-10 09:00:00 78.9 45.8 56.3 78.9 3.0 3.7 2.9 139.0 164.4 0.00 0.1390696 79.2
2020-08-10 09:05:00 79.5 43.4 55.3 79.5 1.7 2.8 2.2 80.3 147.5 0.00 0.1445528 79.2
2020-08-10 09:10:00 80.3 41.0 54.5 80.2 2.8 3.3 2.3 146.1 110.3 0.00 0.1502975 79.2
2020-08-10 09:15:00 80.8 37.8 52.7 80.8 1.9 3.5 2.5 156.4 127.3 0.00 0.1557776 79.2
2020-08-10 09:20:00 81.8 42.1 56.5 81.5 1.0 2.4 1.4 100.1 105.7 0.00 0.1609990 79.2
2020-08-10 09:25:00 82.2 40.7 55.9 81.7 2.2 3.0 2.0 164.6 158.6 0.00 0.1659666 79.2
2020-08-10 09:30:00 82.7 40.2 56.1 82.1 2.6 3.1 1.7 180.7 151.2 0.00 0.1707141 79.3
2020-08-10 09:35:00 82.9 44.3 58.9 82.8 1.5 3.5 1.7 115.2 166.1 0.00 0.1759037 79.3
2020-08-10 09:40:00 82.9 39.4 55.7 82.9 3.5 3.7 2.8 163.3 161.3 0.00 0.1810316 79.3
2020-08-10 09:45:00 82.9 41.5 57.1 82.5 3.7 5.8 4.2 125.7 143.9 0.00 0.1859188 79.3
2020-08-10 09:50:00 82.8 42.6 57.8 82.5 5.8 5.8 4.1 152.7 165.1 0.00 0.1907210 79.3
2020-08-10 09:55:00 82.7 44.4 58.8 82.6 3.0 5.3 3.7 205.8 170.7 0.00 0.1955644 79.3
2020-08-10 10:00:00 82.8 44.6 59.1 82.8 1.9 4.7 2.7 236.3 197.8 0.00 0.2002574 79.3
2020-08-10 10:05:00 82.7 45.7 59.7 82.9 1.7 4.6 3.3 180.9 206.8 0.00 0.2048311 79.3
2020-08-10 10:10:00 84.0 49.6 63.2 85.1 1.3 4.4 2.3 207.3 179.1 0.00 0.2098488 79.4
2020-08-10 10:15:00 84.4 40.6 57.8 83.8 3.7 4.4 3.2 157.8 179.2 0.00 0.2147787 79.4
2020-08-10 10:20:00 85.2 41.5 59.2 84.9 3.3 5.3 3.5 173.5 183.4 0.00 0.2191847 79.4
2020-08-10 10:25:00 85.1 44.7 61.2 85.4 5.1 5.6 4.0 232.7 210.0 0.00 0.2236212 79.4
2020-08-10 10:30:00 85.5 39.7 58.2 85.5 4.4 5.3 3.6 214.0 208.0 0.00 0.2281062 79.5
2020-08-10 10:35:00 85.4 38.4 57.2 85.4 2.6 4.9 3.8 255.7 235.1 0.00 0.2316206 79.5
2020-08-10 10:40:00 85.8 35.9 55.7 85.8 5.1 5.5 3.8 235.3 232.4 0.00 0.2360209 79.5
2020-08-10 10:45:00 86.0 35.6 55.6 86.0 4.0 6.3 4.3 172.6 215.4 0.00 0.2399607 79.6
2020-08-10 10:50:00 87.1 31.0 52.9 87.1 2.4 6.2 3.7 167.0 177.5 0.00 0.2443540 79.6
2020-08-10 10:55:00 88.1 28.5 51.4 88.1 3.7 4.0 2.9 128.4 139.6 0.00 0.2486518 79.6
2020-08-10 11:00:00 88.6 31.9 54.9 88.6 3.1 3.8 2.9 117.7 118.1 0.00 0.2517587 79.7
2020-08-10 11:05:00 89.3 28.2 52.1 89.3 5.1 5.1 3.3 141.0 122.1 0.00 0.2559645 79.7
2020-08-10 11:10:00 89.2 30.5 54.1 89.2 5.1 5.5 4.1 93.6 124.2 0.00 0.2589388 79.8
2020-08-10 11:15:00 89.6 28.1 52.3 89.6 4.0 5.8 3.6 115.9 145.2 0.00 0.2622679 79.8
2020-08-10 11:20:00 90.2 29.5 54.1 90.2 3.1 3.8 2.7 271.1 103.7 0.00 0.2662260 79.8
2020-08-10 11:25:00 90.2 22.7 47.0 90.2 2.4 3.7 2.7 285.5 203.2 0.00 0.2689031 79.9
2020-08-10 11:30:00 91.3 24.8 50.3 91.3 2.1 2.8 1.8 299.3 326.3 0.00 0.2714169 79.9
2020-08-10 11:35:00 91.2 25.1 50.6 91.2 1.7 4.9 2.7 303.8 270.6 0.00 0.2741215 80.0
2020-08-10 11:40:00 91.9 24.6 50.6 91.9 2.6 3.5 2.0 242.9 278.0 0.00 0.2771632 80.0
2020-08-10 11:45:00 92.3 23.2 49.4 92.3 2.2 3.3 2.1 314.2 223.4 0.00 0.2797675 80.1
2020-08-10 11:50:00 92.2 25.5 51.9 92.2 4.0 4.0 2.6 197.2 226.9 0.00 0.2820964 80.1
2020-08-10 11:55:00 92.2 28.7 55.0 92.2 3.5 4.2 3.4 271.3 230.0 0.00 0.2842520 80.1
2020-08-10 12:00:00 92.4 25.0 51.5 92.4 3.7 5.5 3.9 321.4 324.6 0.00 0.2866349 80.2
2020-08-10 12:05:00 92.8 23.5 50.2 92.8 2.1 5.6 3.9 71.4 357.2 0.00 0.2885191 80.3
2020-08-10 12:10:00 93.3 24.7 51.9 93.3 2.1 5.5 3.0 83.3 32.5 0.00 0.2904907 80.3
2020-08-10 12:15:00 93.4 23.4 50.6 93.4 4.9 6.0 4.2 344.8 356.5 0.00 0.2926993 80.3
2020-08-10 12:20:00 93.6 23.3 50.6 93.6 6.2 6.5 4.0 6.4 345.7 0.00 0.2940531 80.4
2020-08-10 12:25:00 93.5 22.0 48.9 93.5 2.6 6.7 3.6 60.3 39.0 0.00 0.2957528 80.5
2020-08-10 12:30:00 94.1 23.1 50.8 94.1 3.1 3.3 2.2 49.9 56.4 0.00 0.2971996 80.5
2020-08-10 12:35:00 94.8 24.5 52.9 94.8 2.1 4.0 2.3 292.8 358.8 0.00 0.2985766 80.6
2020-08-10 12:40:00 94.9 21.6 49.7 94.9 3.0 4.2 2.9 58.4 43.0 0.00 0.2999221 80.6
2020-08-10 12:45:00 95.4 23.1 51.8 95.4 2.4 4.9 2.6 289.1 288.2 0.00 0.2998689 80.7
2020-08-10 12:50:00 96.1 26.0 55.7 96.1 1.9 3.7 2.1 333.6 291.6 0.00 0.3025214 80.7
2020-08-10 12:55:00 95.5 21.1 49.5 95.5 3.0 3.8 2.8 236.1 218.0 0.00 0.3027184 80.8
2020-08-10 13:00:00 95.8 22.9 52.0 95.8 2.4 3.1 2.4 281.1 214.0 0.00 0.3038310 80.8
2020-08-10 13:05:00 95.9 24.2 53.6 95.9 2.8 3.1 2.1 252.1 252.6 0.00 0.3037095 80.9
2020-08-10 13:10:00 96.2 21.7 50.8 96.2 3.8 5.6 3.6 324.7 328.1 0.00 0.3037330 81.0
2020-08-10 13:15:00 96.2 21.3 50.4 96.2 1.9 6.2 2.8 2.5 332.0 0.00 0.3038725 81.0
2020-08-10 13:20:00 96.9 20.2 49.4 96.9 4.6 4.6 1.9 348.8 63.4 0.00 0.3049898 81.1
2020-08-10 13:25:00 96.7 20.7 50.0 96.7 1.7 4.9 2.7 325.3 21.4 0.00 0.3037378 81.1
2020-08-10 13:30:00 97.5 19.4 48.8 97.5 3.5 3.7 2.7 325.5 315.7 0.00 0.3042074 81.2
2020-08-10 13:35:00 97.5 22.5 52.8 97.5 3.5 3.8 2.9 231.0 307.1 0.00 0.3041604 81.3
2020-08-10 13:40:00 96.9 29.3 59.7 96.9 0.0 4.0 2.2 323.4 208.5 0.00 0.3032941 81.3

Data is courtesy of the NM Climate Center. DO NOT USE IN LEGAL PROCEEDINGS.